sensor_id;sensor_type;location;lat;lon;timestamp;P1;durP1;ratioP1;P2;durP2;ratioP2
62844;SDS011;48929;47.910;20.390;2022-07-06T00:26:00;5.93;;;5.20;;
62844;SDS011;48929;47.910;20.390;2022-07-06T00:30:03;7.07;;;4.90;;
62844;SDS011;48929;47.910;20.390;2022-07-06T00:33:29;7.30;;;5.30;;
62844;SDS011;48929;47.910;20.390;2022-07-06T00:36:16;6.55;;;5.15;;
62844;SDS011;48929;47.910;20.390;2022-07-06T00:39:44;6.80;;;5.70;;
62844;SDS011;48929;47.910;20.390;2022-07-06T00:42:50;6.10;;;5.28;;
62844;SDS011;48929;47.910;20.390;2022-07-06T00:53:59;5.63;;;5.00;;
62844;SDS011;48929;47.910;20.390;2022-07-06T01:31:45;6.38;;;5.13;;
62844;SDS011;48929;47.910;20.390;2022-07-06T02:00:15;7.53;;;4.97;;
62844;SDS011;48929;47.910;20.390;2022-07-06T02:03:40;7.10;;;5.38;;
62844;SDS011;48929;47.910;20.390;2022-07-06T02:06:48;5.85;;;5.20;;
62844;SDS011;48929;47.910;20.390;2022-07-06T02:10:02;6.93;;;5.05;;
62844;SDS011;48929;47.910;20.390;2022-07-06T02:13:37;7.63;;;5.20;;
62844;SDS011;48929;47.910;20.390;2022-07-06T02:24:34;6.00;;;4.95;;
62844;SDS011;48929;47.910;20.390;2022-07-06T02:30:48;8.30;;;4.70;;
62844;SDS011;48929;47.910;20.390;2022-07-06T02:33:17;5.97;;;5.00;;
62844;SDS011;48929;47.910;20.390;2022-07-06T02:35:46;7.00;;;5.57;;
62844;SDS011;48929;47.910;20.390;2022-07-06T02:38:17;8.35;;;5.40;;
62844;SDS011;48929;47.910;20.390;2022-07-06T02:40:48;6.18;;;4.90;;
62844;SDS011;48929;47.910;20.390;2022-07-06T02:43:21;8.15;;;5.03;;
62844;SDS011;48929;47.910;20.390;2022-07-06T02:46:00;6.65;;;5.00;;
62844;SDS011;48929;47.910;20.390;2022-07-06T02:48:37;6.53;;;5.00;;
62844;SDS011;48929;47.910;20.390;2022-07-06T02:51:20;7.32;;;4.93;;
62844;SDS011;48929;47.910;20.390;2022-07-06T02:53:57;6.40;;;4.90;;
62844;SDS011;48929;47.910;20.390;2022-07-06T02:56:39;7.43;;;4.90;;
62844;SDS011;48929;47.910;20.390;2022-07-06T02:59:11;6.55;;;4.90;;
62844;SDS011;48929;47.910;20.390;2022-07-06T03:01:49;6.35;;;5.03;;
62844;SDS011;48929;47.910;20.390;2022-07-06T03:04:25;5.30;;;4.80;;
62844;SDS011;48929;47.910;20.390;2022-07-06T03:07:05;8.27;;;4.55;;
62844;SDS011;48929;47.910;20.390;2022-07-06T03:09:49;5.28;;;4.50;;
62844;SDS011;48929;47.910;20.390;2022-07-06T03:12:25;6.13;;;4.68;;
62844;SDS011;48929;47.910;20.390;2022-07-06T03:15:06;6.50;;;5.00;;
62844;SDS011;48929;47.910;20.390;2022-07-06T03:17:43;5.15;;;4.40;;
62844;SDS011;48929;47.910;20.390;2022-07-06T03:44:45;2.50;;;2.20;;
62844;SDS011;48929;47.910;20.390;2022-07-06T03:48:23;1.65;;;1.48;;
62844;SDS011;48929;47.910;20.390;2022-07-06T04:02:54;0.47;;;0.47;;
62844;SDS011;48929;47.910;20.390;2022-07-06T04:05:24;1.08;;;0.80;;
62844;SDS011;48929;47.910;20.390;2022-07-06T04:07:55;0.60;;;0.60;;
62844;SDS011;48929;47.910;20.390;2022-07-06T04:10:24;0.40;;;0.40;;
62844;SDS011;48929;47.910;20.390;2022-07-06T04:12:53;0.80;;;0.70;;
62844;SDS011;48929;47.910;20.390;2022-07-06T04:15:22;2.80;;;0.80;;
62844;SDS011;48929;47.910;20.390;2022-07-06T04:17:54;0.65;;;0.65;;
62844;SDS011;48929;47.910;20.390;2022-07-06T04:20:37;0.40;;;0.40;;
62844;SDS011;48929;47.910;20.390;2022-07-06T04:23:24;1.05;;;0.50;;
62844;SDS011;48929;47.910;20.390;2022-07-06T04:26:05;0.47;;;0.47;;
62844;SDS011;48929;47.910;20.390;2022-07-06T04:28:44;0.80;;;0.55;;
62844;SDS011;48929;47.910;20.390;2022-07-06T04:31:19;1.42;;;1.15;;
62844;SDS011;48929;47.910;20.390;2022-07-06T04:33:48;1.10;;;1.00;;
62844;SDS011;48929;47.910;20.390;2022-07-06T04:36:25;2.17;;;1.33;;
62844;SDS011;48929;47.910;20.390;2022-07-06T04:39:01;1.35;;;1.25;;
62844;SDS011;48929;47.910;20.390;2022-07-06T04:41:42;1.42;;;1.27;;
62844;SDS011;48929;47.910;20.390;2022-07-06T04:45:22;1.48;;;1.38;;
62844;SDS011;48929;47.910;20.390;2022-07-06T04:48:46;1.55;;;1.23;;
62844;SDS011;48929;47.910;20.390;2022-07-06T04:56:06;3.40;;;1.40;;
62844;SDS011;48929;47.910;20.390;2022-07-06T05:07:41;1.88;;;1.20;;
62844;SDS011;48929;47.910;20.390;2022-07-06T05:14:53;2.28;;;1.00;;
62844;SDS011;48929;47.910;20.390;2022-07-06T05:18:57;1.20;;;1.10;;
62844;SDS011;48929;47.910;20.390;2022-07-06T05:54:08;1.20;;;1.10;;
62844;SDS011;48929;47.910;20.390;2022-07-06T05:57:59;1.08;;;0.95;;
62844;SDS011;48929;47.910;20.390;2022-07-06T06:13:43;3.72;;;1.10;;
62844;SDS011;48929;47.910;20.390;2022-07-06T06:17:50;0.85;;;0.85;;
62844;SDS011;48929;47.910;20.390;2022-07-06T06:21:23;3.70;;;1.00;;
62844;SDS011;48929;47.910;20.390;2022-07-06T06:24:59;1.17;;;0.80;;
62844;SDS011;48929;47.910;20.390;2022-07-06T06:45:47;2.47;;;0.80;;
62844;SDS011;48929;47.910;20.390;2022-07-06T06:49:13;1.50;;;0.63;;
62844;SDS011;48929;47.910;20.390;2022-07-06T06:52:14;0.68;;;0.68;;
62844;SDS011;48929;47.910;20.390;2022-07-06T07:11:18;1.58;;;1.40;;
62844;SDS011;48929;47.910;20.390;2022-07-06T07:17:38;1.10;;;1.10;;
62844;SDS011;48929;47.910;20.390;2022-07-06T07:20:36;1.42;;;1.27;;
62844;SDS011;48929;47.910;20.390;2022-07-06T07:23:37;1.50;;;1.40;;
62844;SDS011;48929;47.910;20.390;2022-07-06T07:27:19;1.50;;;1.40;;
62844;SDS011;48929;47.910;20.390;2022-07-06T07:30:40;1.50;;;1.40;;
62844;SDS011;48929;47.910;20.390;2022-07-06T07:33:30;1.70;;;1.60;;
62844;SDS011;48929;47.910;20.390;2022-07-06T07:36:44;1.70;;;1.60;;
62844;SDS011;48929;47.910;20.390;2022-07-06T07:39:40;1.60;;;1.50;;
62844;SDS011;48929;47.910;20.390;2022-07-06T07:42:16;1.80;;;1.58;;
62844;SDS011;48929;47.910;20.390;2022-07-06T07:45:03;1.80;;;1.70;;
62844;SDS011;48929;47.910;20.390;2022-07-06T07:52:33;1.70;;;1.50;;
62844;SDS011;48929;47.910;20.390;2022-07-06T07:59:25;3.28;;;1.90;;
62844;SDS011;48929;47.910;20.390;2022-07-06T08:01:54;2.00;;;1.80;;
62844;SDS011;48929;47.910;20.390;2022-07-06T08:04:23;1.73;;;1.63;;
62844;SDS011;48929;47.910;20.390;2022-07-06T08:06:53;1.70;;;1.60;;
62844;SDS011;48929;47.910;20.390;2022-07-06T08:09:28;1.92;;;1.73;;
62844;SDS011;48929;47.910;20.390;2022-07-06T08:12:15;2.20;;;2.00;;
62844;SDS011;48929;47.910;20.390;2022-07-06T08:14:51;1.90;;;1.80;;
62844;SDS011;48929;47.910;20.390;2022-07-06T08:17:23;2.20;;;2.00;;
62844;SDS011;48929;47.910;20.390;2022-07-06T08:19:59;2.20;;;2.00;;
62844;SDS011;48929;47.910;20.390;2022-07-06T08:22:29;1.90;;;1.80;;
62844;SDS011;48929;47.910;20.390;2022-07-06T08:26:15;1.88;;;1.77;;
62844;SDS011;48929;47.910;20.390;2022-07-06T08:29:01;1.88;;;1.77;;
62844;SDS011;48929;47.910;20.390;2022-07-06T08:31:42;3.97;;;1.80;;
62844;SDS011;48929;47.910;20.390;2022-07-06T08:34:31;1.70;;;1.60;;
62844;SDS011;48929;47.910;20.390;2022-07-06T08:37:06;1.90;;;1.80;;
62844;SDS011;48929;47.910;20.390;2022-07-06T08:39:48;1.75;;;1.65;;
62844;SDS011;48929;47.910;20.390;2022-07-06T08:42:21;2.25;;;1.80;;
62844;SDS011;48929;47.910;20.390;2022-07-06T08:44:52;1.90;;;1.80;;
62844;SDS011;48929;47.910;20.390;2022-07-06T08:47:23;1.88;;;1.70;;
62844;SDS011;48929;47.910;20.390;2022-07-06T08:49:55;1.73;;;1.60;;
62844;SDS011;48929;47.910;20.390;2022-07-06T08:53:15;1.80;;;1.70;;
62844;SDS011;48929;47.910;20.390;2022-07-06T08:55:54;3.22;;;1.88;;
62844;SDS011;48929;47.910;20.390;2022-07-06T08:58:30;3.58;;;1.95;;
62844;SDS011;48929;47.910;20.390;2022-07-06T09:01:00;3.15;;;1.90;;
62844;SDS011;48929;47.910;20.390;2022-07-06T09:03:31;1.80;;;1.70;;
62844;SDS011;48929;47.910;20.390;2022-07-06T09:06:34;2.35;;;1.65;;
62844;SDS011;48929;47.910;20.390;2022-07-06T09:09:06;2.92;;;1.80;;
62844;SDS011;48929;47.910;20.390;2022-07-06T09:11:39;1.90;;;1.70;;
62844;SDS011;48929;47.910;20.390;2022-07-06T09:14:20;1.80;;;1.70;;
62844;SDS011;48929;47.910;20.390;2022-07-06T09:17:00;2.72;;;2.00;;
62844;SDS011;48929;47.910;20.390;2022-07-06T09:19:33;2.03;;;1.90;;
62844;SDS011;48929;47.910;20.390;2022-07-06T09:22:03;2.10;;;1.90;;
62844;SDS011;48929;47.910;20.390;2022-07-06T09:24:37;2.20;;;2.00;;
62844;SDS011;48929;47.910;20.390;2022-07-06T09:27:15;2.42;;;1.85;;
62844;SDS011;48929;47.910;20.390;2022-07-06T09:29:44;2.13;;;1.90;;
62844;SDS011;48929;47.910;20.390;2022-07-06T09:32:14;2.33;;;2.10;;
62844;SDS011;48929;47.910;20.390;2022-07-06T09:34:49;2.10;;;1.90;;
62844;SDS011;48929;47.910;20.390;2022-07-06T09:37:18;3.67;;;2.20;;
62844;SDS011;48929;47.910;20.390;2022-07-06T09:39:52;2.33;;;2.05;;
62844;SDS011;48929;47.910;20.390;2022-07-06T09:42:23;2.80;;;2.10;;
62844;SDS011;48929;47.910;20.390;2022-07-06T09:44:53;2.20;;;2.00;;
62844;SDS011;48929;47.910;20.390;2022-07-06T09:47:22;2.20;;;2.00;;
62844;SDS011;48929;47.910;20.390;2022-07-06T09:49:52;3.30;;;2.20;;
62844;SDS011;48929;47.910;20.390;2022-07-06T09:52:33;2.88;;;2.00;;
62844;SDS011;48929;47.910;20.390;2022-07-06T09:55:05;2.10;;;1.90;;
62844;SDS011;48929;47.910;20.390;2022-07-06T09:57:51;2.40;;;2.20;;
62844;SDS011;48929;47.910;20.390;2022-07-06T10:00:21;2.30;;;2.10;;
62844;SDS011;48929;47.910;20.390;2022-07-06T10:02:50;5.32;;;3.42;;
62844;SDS011;48929;47.910;20.390;2022-07-06T10:05:24;5.43;;;2.30;;
62844;SDS011;48929;47.910;20.390;2022-07-06T10:07:59;2.20;;;1.98;;
62844;SDS011;48929;47.910;20.390;2022-07-06T10:10:32;2.20;;;2.00;;
62844;SDS011;48929;47.910;20.390;2022-07-06T10:13:03;2.40;;;2.20;;
62844;SDS011;48929;47.910;20.390;2022-07-06T10:15:39;2.20;;;2.00;;
62844;SDS011;48929;47.910;20.390;2022-07-06T10:18:18;2.30;;;2.10;;
62844;SDS011;48929;47.910;20.390;2022-07-06T10:21:05;2.30;;;2.10;;
62844;SDS011;48929;47.910;20.390;2022-07-06T10:24:35;2.38;;;2.17;;
62844;SDS011;48929;47.910;20.390;2022-07-06T10:27:13;2.20;;;2.00;;
62844;SDS011;48929;47.910;20.390;2022-07-06T10:29:49;2.47;;;2.10;;
62844;SDS011;48929;47.910;20.390;2022-07-06T10:32:19;2.75;;;2.30;;
62844;SDS011;48929;47.910;20.390;2022-07-06T10:34:49;2.20;;;2.00;;
62844;SDS011;48929;47.910;20.390;2022-07-06T10:37:23;2.45;;;2.10;;
62844;SDS011;48929;47.910;20.390;2022-07-06T10:39:55;2.30;;;2.10;;
62844;SDS011;48929;47.910;20.390;2022-07-06T10:42:42;4.45;;;2.42;;
62844;SDS011;48929;47.910;20.390;2022-07-06T10:45:13;3.78;;;2.10;;
62844;SDS011;48929;47.910;20.390;2022-07-06T10:47:43;3.20;;;2.20;;
62844;SDS011;48929;47.910;20.390;2022-07-06T10:50:18;2.85;;;2.10;;
62844;SDS011;48929;47.910;20.390;2022-07-06T10:52:58;2.83;;;2.10;;
62844;SDS011;48929;47.910;20.390;2022-07-06T10:55:27;2.15;;;1.95;;
62844;SDS011;48929;47.910;20.390;2022-07-06T10:58:02;2.45;;;2.25;;
62844;SDS011;48929;47.910;20.390;2022-07-06T11:00:48;2.15;;;1.95;;
62844;SDS011;48929;47.910;20.390;2022-07-06T11:03:42;2.90;;;1.90;;
62844;SDS011;48929;47.910;20.390;2022-07-06T11:06:14;2.20;;;2.00;;
62844;SDS011;48929;47.910;20.390;2022-07-06T11:08:56;2.15;;;1.95;;
62844;SDS011;48929;47.910;20.390;2022-07-06T11:11:26;3.13;;;1.90;;
62844;SDS011;48929;47.910;20.390;2022-07-06T11:14:08;2.08;;;1.88;;
62844;SDS011;48929;47.910;20.390;2022-07-06T11:16:59;2.45;;;1.92;;
62844;SDS011;48929;47.910;20.390;2022-07-06T11:19:31;2.25;;;1.90;;
62844;SDS011;48929;47.910;20.390;2022-07-06T11:22:09;2.00;;;1.90;;
62844;SDS011;48929;47.910;20.390;2022-07-06T11:24:40;2.13;;;1.90;;
62844;SDS011;48929;47.910;20.390;2022-07-06T11:27:08;2.03;;;1.80;;
62844;SDS011;48929;47.910;20.390;2022-07-06T11:29:37;3.88;;;1.80;;
62844;SDS011;48929;47.910;20.390;2022-07-06T11:32:07;2.00;;;1.80;;
62844;SDS011;48929;47.910;20.390;2022-07-06T11:34:38;3.50;;;2.33;;
62844;SDS011;48929;47.910;20.390;2022-07-06T11:37:17;2.00;;;1.80;;
62844;SDS011;48929;47.910;20.390;2022-07-06T11:39:47;1.92;;;1.83;;
62844;SDS011;48929;47.910;20.390;2022-07-06T11:43:12;2.58;;;2.28;;
62844;SDS011;48929;47.910;20.390;2022-07-06T11:45:42;2.00;;;1.80;;
62844;SDS011;48929;47.910;20.390;2022-07-06T11:48:12;2.42;;;2.00;;
62844;SDS011;48929;47.910;20.390;2022-07-06T11:50:56;2.78;;;1.95;;
62844;SDS011;48929;47.910;20.390;2022-07-06T11:53:25;3.00;;;2.05;;
62844;SDS011;48929;47.910;20.390;2022-07-06T11:55:55;4.20;;;2.00;;
62844;SDS011;48929;47.910;20.390;2022-07-06T11:58:30;2.33;;;1.90;;
62844;SDS011;48929;47.910;20.390;2022-07-06T12:01:05;2.05;;;1.90;;
62844;SDS011;48929;47.910;20.390;2022-07-06T12:03:34;1.90;;;1.80;;
62844;SDS011;48929;47.910;20.390;2022-07-06T12:06:03;1.80;;;1.70;;
62844;SDS011;48929;47.910;20.390;2022-07-06T12:08:40;2.78;;;1.95;;
62844;SDS011;48929;47.910;20.390;2022-07-06T12:11:11;1.92;;;1.80;;
62844;SDS011;48929;47.910;20.390;2022-07-06T12:13:46;2.08;;;1.88;;
62844;SDS011;48929;47.910;20.390;2022-07-06T12:16:15;3.67;;;2.00;;
62844;SDS011;48929;47.910;20.390;2022-07-06T12:18:45;2.85;;;1.80;;
62844;SDS011;48929;47.910;20.390;2022-07-06T12:21:16;2.30;;;2.10;;
62844;SDS011;48929;47.910;20.390;2022-07-06T12:23:48;4.05;;;2.50;;
62844;SDS011;48929;47.910;20.390;2022-07-06T12:26:21;2.90;;;2.50;;
62844;SDS011;48929;47.910;20.390;2022-07-06T12:29:01;2.45;;;2.17;;
62844;SDS011;48929;47.910;20.390;2022-07-06T12:31:54;2.42;;;2.10;;
62844;SDS011;48929;47.910;20.390;2022-07-06T12:34:28;3.45;;;1.92;;
62844;SDS011;48929;47.910;20.390;2022-07-06T12:36:59;2.38;;;2.17;;
62844;SDS011;48929;47.910;20.390;2022-07-06T12:39:40;2.33;;;2.10;;
62844;SDS011;48929;47.910;20.390;2022-07-06T12:48:53;2.20;;;2.00;;
62844;SDS011;48929;47.910;20.390;2022-07-06T12:54:19;2.25;;;2.08;;
62844;SDS011;48929;47.910;20.390;2022-07-06T12:56:58;2.60;;;2.20;;
62844;SDS011;48929;47.910;20.390;2022-07-06T12:59:36;2.20;;;2.00;;
62844;SDS011;48929;47.910;20.390;2022-07-06T13:02:09;2.28;;;2.00;;
62844;SDS011;48929;47.910;20.390;2022-07-06T13:04:53;2.40;;;2.20;;
62844;SDS011;48929;47.910;20.390;2022-07-06T13:07:29;2.58;;;2.13;;
62844;SDS011;48929;47.910;20.390;2022-07-06T13:10:03;4.85;;;2.30;;
62844;SDS011;48929;47.910;20.390;2022-07-06T13:12:35;2.35;;;2.10;;
62844;SDS011;48929;47.910;20.390;2022-07-06T13:15:05;2.30;;;2.08;;
62844;SDS011;48929;47.910;20.390;2022-07-06T13:18:10;3.47;;;2.40;;
62844;SDS011;48929;47.910;20.390;2022-07-06T13:21:16;7.65;;;2.97;;
62844;SDS011;48929;47.910;20.390;2022-07-06T13:23:46;2.35;;;2.15;;
62844;SDS011;48929;47.910;20.390;2022-07-06T13:26:20;2.80;;;2.42;;
62844;SDS011;48929;47.910;20.390;2022-07-06T13:28:51;2.92;;;2.30;;
62844;SDS011;48929;47.910;20.390;2022-07-06T13:31:22;2.95;;;2.30;;
62844;SDS011;48929;47.910;20.390;2022-07-06T13:34:57;3.08;;;2.50;;
62844;SDS011;48929;47.910;20.390;2022-07-06T13:37:29;2.80;;;2.40;;
62844;SDS011;48929;47.910;20.390;2022-07-06T13:40:12;3.33;;;2.40;;
62844;SDS011;48929;47.910;20.390;2022-07-06T13:42:41;3.15;;;2.42;;
62844;SDS011;48929;47.910;20.390;2022-07-06T13:45:18;5.10;;;2.47;;
62844;SDS011;48929;47.910;20.390;2022-07-06T13:53:38;4.25;;;2.20;;
62844;SDS011;48929;47.910;20.390;2022-07-06T13:56:10;3.30;;;2.20;;
62844;SDS011;48929;47.910;20.390;2022-07-06T13:58:43;2.58;;;2.38;;
62844;SDS011;48929;47.910;20.390;2022-07-06T14:01:19;3.17;;;2.20;;
62844;SDS011;48929;47.910;20.390;2022-07-06T14:04:32;4.57;;;2.40;;
62844;SDS011;48929;47.910;20.390;2022-07-06T14:07:03;3.67;;;2.28;;
62844;SDS011;48929;47.910;20.390;2022-07-06T14:09:33;2.83;;;2.30;;
62844;SDS011;48929;47.910;20.390;2022-07-06T14:12:05;3.30;;;2.60;;
62844;SDS011;48929;47.910;20.390;2022-07-06T14:14:49;3.95;;;2.50;;
62844;SDS011;48929;47.910;20.390;2022-07-06T14:17:32;2.90;;;2.50;;
62844;SDS011;48929;47.910;20.390;2022-07-06T14:23:09;3.28;;;2.30;;
62844;SDS011;48929;47.910;20.390;2022-07-06T14:26:01;4.30;;;2.40;;
62844;SDS011;48929;47.910;20.390;2022-07-06T14:28:37;2.40;;;2.20;;
62844;SDS011;48929;47.910;20.390;2022-07-06T14:31:35;3.65;;;2.45;;
62844;SDS011;48929;47.910;20.390;2022-07-06T14:34:22;3.92;;;2.30;;
62844;SDS011;48929;47.910;20.390;2022-07-06T14:37:05;2.78;;;2.15;;
62844;SDS011;48929;47.910;20.390;2022-07-06T14:39:51;3.05;;;2.28;;
62844;SDS011;48929;47.910;20.390;2022-07-06T14:42:26;2.63;;;2.13;;
62844;SDS011;48929;47.910;20.390;2022-07-06T14:44:59;2.67;;;2.47;;
62844;SDS011;48929;47.910;20.390;2022-07-06T14:47:33;4.15;;;2.22;;
62844;SDS011;48929;47.910;20.390;2022-07-06T14:50:08;4.85;;;2.40;;
62844;SDS011;48929;47.910;20.390;2022-07-06T14:52:40;2.95;;;2.40;;
62844;SDS011;48929;47.910;20.390;2022-07-06T14:55:12;4.10;;;2.58;;
62844;SDS011;48929;47.910;20.390;2022-07-06T14:57:48;6.95;;;3.20;;
62844;SDS011;48929;47.910;20.390;2022-07-06T15:00:20;6.70;;;3.00;;
62844;SDS011;48929;47.910;20.390;2022-07-06T15:02:50;4.60;;;2.60;;
62844;SDS011;48929;47.910;20.390;2022-07-06T15:05:25;5.22;;;2.72;;
62844;SDS011;48929;47.910;20.390;2022-07-06T15:08:05;16.80;;;3.90;;
62844;SDS011;48929;47.910;20.390;2022-07-06T15:13:46;7.05;;;3.40;;
62844;SDS011;48929;47.910;20.390;2022-07-06T15:16:36;3.75;;;3.00;;
62844;SDS011;48929;47.910;20.390;2022-07-06T15:19:08;6.10;;;3.08;;
62844;SDS011;48929;47.910;20.390;2022-07-06T15:21:43;5.03;;;3.20;;
62844;SDS011;48929;47.910;20.390;2022-07-06T15:24:21;4.50;;;2.88;;
62844;SDS011;48929;47.910;20.390;2022-07-06T15:30:06;3.92;;;3.22;;
62844;SDS011;48929;47.910;20.390;2022-07-06T15:32:59;4.15;;;3.40;;
62844;SDS011;48929;47.910;20.390;2022-07-06T15:39:20;5.47;;;3.15;;
62844;SDS011;48929;47.910;20.390;2022-07-06T15:42:47;5.75;;;3.60;;
62844;SDS011;48929;47.910;20.390;2022-07-06T15:46:43;5.03;;;3.30;;
62844;SDS011;48929;47.910;20.390;2022-07-06T15:53:46;4.15;;;3.53;;
62844;SDS011;48929;47.910;20.390;2022-07-06T16:01:35;4.80;;;3.70;;
62844;SDS011;48929;47.910;20.390;2022-07-06T16:04:35;4.75;;;4.10;;
62844;SDS011;48929;47.910;20.390;2022-07-06T16:07:09;6.50;;;4.47;;
62844;SDS011;48929;47.910;20.390;2022-07-06T16:10:16;5.35;;;4.00;;
62844;SDS011;48929;47.910;20.390;2022-07-06T16:12:44;7.15;;;4.38;;
62844;SDS011;48929;47.910;20.390;2022-07-06T16:15:13;5.03;;;4.05;;
62844;SDS011;48929;47.910;20.390;2022-07-06T16:17:54;4.70;;;3.92;;
62844;SDS011;48929;47.910;20.390;2022-07-06T16:20:23;6.13;;;4.18;;
62844;SDS011;48929;47.910;20.390;2022-07-06T16:22:52;5.78;;;4.80;;
62844;SDS011;48929;47.910;20.390;2022-07-06T16:25:23;5.03;;;4.05;;
62844;SDS011;48929;47.910;20.390;2022-07-06T16:27:52;6.65;;;4.25;;
62844;SDS011;48929;47.910;20.390;2022-07-06T16:30:24;4.40;;;3.80;;
62844;SDS011;48929;47.910;20.390;2022-07-06T16:32:57;4.18;;;3.78;;
62844;SDS011;48929;47.910;20.390;2022-07-06T16:35:37;4.63;;;3.78;;
62844;SDS011;48929;47.910;20.390;2022-07-06T16:38:16;4.97;;;3.80;;
62844;SDS011;48929;47.910;20.390;2022-07-06T16:41:09;4.13;;;3.72;;
62844;SDS011;48929;47.910;20.390;2022-07-06T16:48:06;4.78;;;3.80;;
62844;SDS011;48929;47.910;20.390;2022-07-06T16:50:45;5.10;;;3.60;;
62844;SDS011;48929;47.910;20.390;2022-07-06T16:53:15;4.07;;;3.67;;
62844;SDS011;48929;47.910;20.390;2022-07-06T16:55:50;6.20;;;3.70;;
62844;SDS011;48929;47.910;20.390;2022-07-06T16:58:20;4.70;;;3.65;;
62844;SDS011;48929;47.910;20.390;2022-07-06T17:00:52;4.38;;;3.75;;
62844;SDS011;48929;47.910;20.390;2022-07-06T17:03:40;6.93;;;3.67;;
62844;SDS011;48929;47.910;20.390;2022-07-06T17:06:17;4.18;;;3.78;;
62844;SDS011;48929;47.910;20.390;2022-07-06T17:08:55;6.38;;;3.90;;
62844;SDS011;48929;47.910;20.390;2022-07-06T17:11:47;4.60;;;3.80;;
62844;SDS011;48929;47.910;20.390;2022-07-06T17:17:35;4.18;;;3.78;;
62844;SDS011;48929;47.910;20.390;2022-07-06T17:23:22;5.60;;;4.32;;
62844;SDS011;48929;47.910;20.390;2022-07-06T17:26:24;6.80;;;4.45;;
62844;SDS011;48929;47.910;20.390;2022-07-06T17:32:05;5.78;;;4.30;;
62844;SDS011;48929;47.910;20.390;2022-07-06T17:34:52;5.75;;;4.63;;
62844;SDS011;48929;47.910;20.390;2022-07-06T17:37:28;8.63;;;5.10;;
62844;SDS011;48929;47.910;20.390;2022-07-06T17:40:22;7.13;;;5.13;;
62844;SDS011;48929;47.910;20.390;2022-07-06T17:47:20;10.63;;;5.45;;
62844;SDS011;48929;47.910;20.390;2022-07-06T17:50:37;7.40;;;5.03;;
62844;SDS011;48929;47.910;20.390;2022-07-06T17:56:45;8.80;;;5.63;;
62844;SDS011;48929;47.910;20.390;2022-07-06T17:59:43;8.57;;;6.18;;
62844;SDS011;48929;47.910;20.390;2022-07-06T18:02:50;10.05;;;6.15;;
62844;SDS011;48929;47.910;20.390;2022-07-06T18:05:57;7.70;;;5.70;;
62844;SDS011;48929;47.910;20.390;2022-07-06T18:12:39;8.88;;;5.63;;
62844;SDS011;48929;47.910;20.390;2022-07-06T18:15:54;7.90;;;5.30;;
62844;SDS011;48929;47.910;20.390;2022-07-06T18:19:10;10.70;;;6.18;;
62844;SDS011;48929;47.910;20.390;2022-07-06T18:22:28;8.43;;;5.80;;
62844;SDS011;48929;47.910;20.390;2022-07-06T18:32:17;6.03;;;4.78;;
62844;SDS011;48929;47.910;20.390;2022-07-06T18:36:00;6.22;;;5.05;;
62844;SDS011;48929;47.910;20.390;2022-07-06T18:39:44;8.65;;;5.50;;
62844;SDS011;48929;47.910;20.390;2022-07-06T18:43:08;9.73;;;5.53;;
62844;SDS011;48929;47.910;20.390;2022-07-06T18:50:15;6.82;;;5.30;;
62844;SDS011;48929;47.910;20.390;2022-07-06T18:55:29;6.53;;;5.15;;
62844;SDS011;48929;47.910;20.390;2022-07-06T19:01:28;5.70;;;5.00;;
62844;SDS011;48929;47.910;20.390;2022-07-06T19:13:55;12.23;;;5.75;;
62844;SDS011;48929;47.910;20.390;2022-07-06T19:49:37;8.47;;;6.03;;
62844;SDS011;48929;47.910;20.390;2022-07-06T20:01:32;6.47;;;5.80;;
62844;SDS011;48929;47.910;20.390;2022-07-06T20:04:01;7.93;;;5.88;;
62844;SDS011;48929;47.910;20.390;2022-07-06T20:06:30;6.20;;;5.60;;
62844;SDS011;48929;47.910;20.390;2022-07-06T20:09:00;7.88;;;6.00;;
62844;SDS011;48929;47.910;20.390;2022-07-06T20:11:29;8.27;;;6.00;;
62844;SDS011;48929;47.910;20.390;2022-07-06T20:13:58;7.38;;;6.45;;
62844;SDS011;48929;47.910;20.390;2022-07-06T20:16:27;7.15;;;5.93;;
62844;SDS011;48929;47.910;20.390;2022-07-06T20:18:58;6.50;;;5.75;;
62844;SDS011;48929;47.910;20.390;2022-07-06T20:21:27;7.63;;;6.50;;
62844;SDS011;48929;47.910;20.390;2022-07-06T20:23:56;10.38;;;6.28;;
62844;SDS011;48929;47.910;20.390;2022-07-06T20:26:24;6.75;;;5.90;;
62844;SDS011;48929;47.910;20.390;2022-07-06T20:28:53;7.57;;;6.80;;
62844;SDS011;48929;47.910;20.390;2022-07-06T20:31:22;8.60;;;6.88;;
62844;SDS011;48929;47.910;20.390;2022-07-06T20:33:51;9.38;;;6.57;;
62844;SDS011;48929;47.910;20.390;2022-07-06T20:36:21;11.02;;;6.95;;
62844;SDS011;48929;47.910;20.390;2022-07-06T20:38:50;8.88;;;7.07;;
62844;SDS011;48929;47.910;20.390;2022-07-06T20:41:18;8.20;;;7.20;;
62844;SDS011;48929;47.910;20.390;2022-07-06T20:43:47;8.82;;;7.20;;
62844;SDS011;48929;47.910;20.390;2022-07-06T20:46:19;8.30;;;6.72;;
62844;SDS011;48929;47.910;20.390;2022-07-06T20:48:48;7.97;;;7.18;;
62844;SDS011;48929;47.910;20.390;2022-07-06T20:51:17;8.10;;;6.65;;
62844;SDS011;48929;47.910;20.390;2022-07-06T20:53:48;8.73;;;7.13;;
62844;SDS011;48929;47.910;20.390;2022-07-06T20:56:17;7.75;;;6.95;;
62844;SDS011;48929;47.910;20.390;2022-07-06T20:58:45;9.15;;;6.97;;
62844;SDS011;48929;47.910;20.390;2022-07-06T21:01:34;7.40;;;6.63;;
62844;SDS011;48929;47.910;20.390;2022-07-06T21:04:02;8.73;;;6.90;;
62844;SDS011;48929;47.910;20.390;2022-07-06T21:06:31;8.57;;;7.47;;
62844;SDS011;48929;47.910;20.390;2022-07-06T21:09:02;9.50;;;7.28;;
62844;SDS011;48929;47.910;20.390;2022-07-06T21:11:31;9.50;;;7.80;;
62844;SDS011;48929;47.910;20.390;2022-07-06T21:14:01;8.80;;;7.90;;
62844;SDS011;48929;47.910;20.390;2022-07-06T21:16:30;10.80;;;7.43;;
62844;SDS011;48929;47.910;20.390;2022-07-06T21:19:01;8.30;;;7.32;;
62844;SDS011;48929;47.910;20.390;2022-07-06T21:21:33;8.52;;;6.97;;
62844;SDS011;48929;47.910;20.390;2022-07-06T21:24:04;8.45;;;7.55;;
62844;SDS011;48929;47.910;20.390;2022-07-06T21:26:33;9.30;;;7.65;;
62844;SDS011;48929;47.910;20.390;2022-07-06T21:29:11;9.05;;;7.78;;
62844;SDS011;48929;47.910;20.390;2022-07-06T21:31:40;9.27;;;7.75;;
62844;SDS011;48929;47.910;20.390;2022-07-06T21:34:09;8.73;;;7.45;;
62844;SDS011;48929;47.910;20.390;2022-07-06T21:36:38;10.23;;;8.73;;
62844;SDS011;48929;47.910;20.390;2022-07-06T21:39:08;9.43;;;7.68;;
62844;SDS011;48929;47.910;20.390;2022-07-06T21:41:38;8.98;;;7.63;;
62844;SDS011;48929;47.910;20.390;2022-07-06T21:44:07;10.65;;;9.25;;
62844;SDS011;48929;47.910;20.390;2022-07-06T21:46:39;10.77;;;8.40;;
62844;SDS011;48929;47.910;20.390;2022-07-06T21:49:08;8.70;;;7.80;;
62844;SDS011;48929;47.910;20.390;2022-07-06T21:51:37;9.30;;;8.30;;
62844;SDS011;48929;47.910;20.390;2022-07-06T21:54:05;8.82;;;7.93;;
62844;SDS011;48929;47.910;20.390;2022-07-06T21:56:37;11.85;;;8.82;;
62844;SDS011;48929;47.910;20.390;2022-07-06T21:59:06;10.10;;;7.93;;
62844;SDS011;48929;47.910;20.390;2022-07-06T22:01:35;7.60;;;6.90;;
62844;SDS011;48929;47.910;20.390;2022-07-06T22:04:04;8.55;;;7.65;;
62844;SDS011;48929;47.910;20.390;2022-07-06T22:06:33;8.45;;;7.22;;
62844;SDS011;48929;47.910;20.390;2022-07-06T22:09:02;9.45;;;8.07;;
62844;SDS011;48929;47.910;20.390;2022-07-06T22:11:31;9.27;;;8.38;;
62844;SDS011;48929;47.910;20.390;2022-07-06T22:14:05;7.75;;;6.55;;
62844;SDS011;48929;47.910;20.390;2022-07-06T22:16:33;7.65;;;6.85;;
62844;SDS011;48929;47.910;20.390;2022-07-06T22:19:02;7.88;;;7.15;;
62844;SDS011;48929;47.910;20.390;2022-07-06T22:21:33;8.13;;;7.25;;
62844;SDS011;48929;47.910;20.390;2022-07-06T22:24:02;7.57;;;6.88;;